Time;durP1;ratioP1;P1;durP2;ratioP2;P2;SDS_P1;SDS_P2;PMS_P1;PMS_P2;Temp;Humidity;BMP_temperature;BMP_pressure;BME280_temperature;BME280_humidity;BME280_pressure;Samples;Min_cycle;Max_cycle;Signal;HPM_P1;HPM_P2
2023/12/16 00:02:03;;;;;;;59.77;38.20;;;7.80;63.40;;;;;;5088100;28;20177;-87
2023/12/16 00:04:28;;;;;;;60.33;37.30;;;7.80;63.20;;;;;;5072848;28;20177;-87
2023/12/16 00:06:54;;;;;;;60.47;35.73;;;7.90;63.50;;;;;;5071890;28;20188;-87
2023/12/16 00:09:20;;;;;;;61.00;36.80;;;7.80;63.20;;;;;;5071277;28;20637;-87
2023/12/16 00:11:45;;;;;;;65.93;37.40;;;7.80;63.20;;;;;;5071143;28;20789;-88
2023/12/16 00:14:11;;;;;;;53.93;34.63;;;7.90;63.50;;;;;;5071669;28;20184;-86
2023/12/16 00:16:36;;;;;;;63.13;37.07;;;7.80;63.40;;;;;;5070050;28;20761;-87
2023/12/16 00:19:03;;;;;;;54.97;35.50;;;7.90;63.50;;;;;;5072213;28;20188;-87
2023/12/16 00:21:28;;;;;;;57.47;34.13;;;7.80;63.40;;;;;;5072273;28;20563;-87
2023/12/16 00:23:54;;;;;;;57.93;35.90;;;7.90;63.70;;;;;;5071534;28;20189;-87
2023/12/16 00:26:19;;;;;;;56.83;35.60;;;8.00;63.80;;;;;;5070470;28;20188;-87
2023/12/16 00:28:45;;;;;;;60.93;36.27;;;7.90;63.60;;;;;;5072175;28;20173;-87
2023/12/16 00:31:11;;;;;;;58.83;35.93;;;7.90;63.50;;;;;;5068497;28;20201;-87
2023/12/16 00:33:36;;;;;;;63.57;37.47;;;7.90;63.70;;;;;;5071596;28;20626;-87
2023/12/16 00:36:03;;;;;;;61.40;37.53;;;8.00;63.80;;;;;;5067311;28;20189;-87
2023/12/16 00:38:30;;;;;;;68.53;39.37;;;7.90;63.80;;;;;;5087638;28;20660;-87
2023/12/16 00:40:55;;;;;;;64.17;36.07;;;7.90;63.80;;;;;;5069491;28;20183;-87
2023/12/16 00:43:21;;;;;;;67.30;38.07;;;7.80;63.80;;;;;;5071029;28;20268;-87
2023/12/16 00:45:46;;;;;;;79.50;40.83;;;7.80;64.00;;;;;;5070524;28;20193;-88
2023/12/16 00:48:12;;;;;;;69.30;38.40;;;7.70;64.20;;;;;;5068584;28;20213;-87
2023/12/16 00:50:38;;;;;;;71.57;38.67;;;7.80;64.60;;;;;;5088038;28;20201;-88
2023/12/16 00:53:04;;;;;;;70.27;39.97;;;7.70;64.60;;;;;;5088058;28;20184;-87
2023/12/16 00:55:30;;;;;;;72.50;38.20;;;7.60;64.70;;;;;;5072519;28;20173;-88
2023/12/16 00:57:55;;;;;;;68.63;38.60;;;7.70;65.00;;;;;;5070821;28;20215;-86
2023/12/16 01:00:21;;;;;;;67.50;38.23;;;7.70;65.10;;;;;;5070970;28;20181;-87
2023/12/16 01:02:46;;;;;;;71.73;38.10;;;7.80;65.20;;;;;;5071536;28;20192;-88
2023/12/16 01:05:12;;;;;;;61.53;38.07;;;8.00;65.20;;;;;;5087862;28;20169;-87
2023/12/16 01:07:38;;;;;;;73.77;40.87;;;7.80;64.80;;;;;;5070974;28;20173;-87
2023/12/16 01:10:04;;;;;;;69.93;39.57;;;7.80;64.80;;;;;;5070400;28;20230;-88
2023/12/16 01:12:29;;;;;;;63.30;37.47;;;7.80;64.80;;;;;;5070001;28;20212;-87
2023/12/16 01:14:55;;;;;;;67.03;38.13;;;7.80;64.90;;;;;;5069267;28;20197;-88
2023/12/16 01:17:20;;;;;;;63.83;37.30;;;7.80;64.90;;;;;;5070189;28;20173;-87
2023/12/16 01:19:46;;;;;;;73.03;38.33;;;7.80;65.00;;;;;;5086523;28;20173;-88
2023/12/16 01:22:12;;;;;;;70.77;38.33;;;7.80;65.10;;;;;;5066827;28;20668;-88
2023/12/16 01:24:38;;;;;;;70.97;38.83;;;7.90;66.10;;;;;;5083939;28;20178;-88
2023/12/16 01:27:05;;;;;;;66.60;37.07;;;7.80;65.00;;;;;;5082923;28;20185;-88
2023/12/16 01:29:30;;;;;;;69.13;38.23;;;7.80;65.10;;;;;;5085075;28;20185;-86
2023/12/16 01:31:56;;;;;;;67.50;38.53;;;7.90;65.30;;;;;;5070993;28;20661;-87
2023/12/16 01:34:21;;;;;;;68.47;38.40;;;7.80;65.20;;;;;;5070176;28;20242;-87
2023/12/16 01:36:47;;;;;;;71.20;38.17;;;7.90;65.20;;;;;;5070681;28;20188;-88
2023/12/16 01:39:12;;;;;;;73.80;38.87;;;7.90;65.20;;;;;;5068717;28;20212;-88
2023/12/16 01:41:38;;;;;;;71.20;38.07;;;7.90;65.20;;;;;;5086711;28;20181;-88
2023/12/16 01:44:04;;;;;;;77.60;39.77;;;7.90;65.10;;;;;;5071066;28;20169;-88
2023/12/16 01:46:32;;;;;;;69.63;38.73;;;7.90;65.00;;;;;;5070452;28;20280;-87
2023/12/16 01:48:58;;;;;;;68.20;36.97;;;7.90;65.10;;;;;;5070289;28;20629;-87
2023/12/16 01:51:24;;;;;;;67.50;38.30;;;7.90;65.20;;;;;;5070203;28;20235;-88
2023/12/16 01:53:50;;;;;;;69.87;36.67;;;7.80;65.30;;;;;;5069994;28;20184;-87
2023/12/16 01:56:16;;;;;;;64.97;35.70;;;7.90;65.40;;;;;;5070220;28;20172;-87
2023/12/16 01:58:42;;;;;;;75.00;39.37;;;7.90;65.60;;;;;;5069707;28;20247;-88
2023/12/16 02:01:07;;;;;;;70.70;36.33;;;7.90;66.20;;;;;;5068778;28;20195;-88
2023/12/16 02:03:36;;;;;;;66.83;35.67;;;7.90;65.50;;;;;;5070450;28;20186;-87
2023/12/16 02:06:02;;;;;;;67.03;36.27;;;7.90;65.60;;;;;;5085178;28;20642;-87
2023/12/16 02:08:27;;;;;;;72.63;37.60;;;7.90;65.50;;;;;;5069160;28;20172;-88
2023/12/16 02:10:53;;;;;;;65.33;35.27;;;7.90;65.60;;;;;;5066653;28;20208;-88
2023/12/16 02:13:19;;;;;;;71.07;35.73;;;7.90;65.50;;;;;;5070632;28;20254;-87
2023/12/16 02:15:45;;;;;;;72.00;36.67;;;7.90;65.40;;;;;;5069188;28;20521;-87
2023/12/16 02:18:11;;;;;;;62.70;33.90;;;7.90;65.60;;;;;;5069992;28;20230;-87
2023/12/16 02:20:37;;;;;;;69.13;38.67;;;8.00;65.70;;;;;;5084521;28;20202;-87
2023/12/16 02:23:05;;;;;;;72.63;37.00;;;8.00;65.60;;;;;;5065221;28;20540;-87
2023/12/16 02:25:31;;;;;;;63.53;34.70;;;8.10;65.60;;;;;;5082837;28;20214;-88
2023/12/16 02:27:56;;;;;;;68.67;37.23;;;8.00;65.60;;;;;;5078481;28;20186;-87
2023/12/16 02:30:24;;;;;;;65.10;34.13;;;8.00;65.50;;;;;;5054788;28;20694;-87
2023/12/16 02:32:49;;;;;;;66.60;34.27;;;8.00;65.50;;;;;;5086026;28;20671;-87
2023/12/16 02:35:15;;;;;;;65.97;34.73;;;8.10;65.60;;;;;;5066617;28;20187;-88
2023/12/16 02:37:41;;;;;;;64.10;34.20;;;7.90;65.50;;;;;;5084158;28;20201;-88
2023/12/16 02:40:07;;;;;;;65.43;34.07;;;7.90;65.60;;;;;;5085460;28;20715;-87
2023/12/16 02:42:32;;;;;;;66.33;33.73;;;7.90;65.60;;;;;;5080689;28;20209;-87
2023/12/16 02:44:58;;;;;;;67.93;34.30;;;7.90;65.80;;;;;;5083846;28;20210;-88
2023/12/16 02:47:24;;;;;;;61.70;33.37;;;8.00;66.00;;;;;;5086975;28;20180;-87
2023/12/16 02:49:49;;;;;;;67.20;34.90;;;7.90;66.00;;;;;;5082801;28;20174;-88
2023/12/16 02:52:15;;;;;;;64.83;33.70;;;7.90;66.80;;;;;;5058428;28;20240;-88
2023/12/16 02:54:40;;;;;;;62.83;34.37;;;7.90;66.10;;;;;;5059193;28;20189;-87
2023/12/16 02:57:06;;;;;;;68.40;33.87;;;8.10;66.40;;;;;;5086317;28;20629;-87
2023/12/16 02:59:32;;;;;;;66.43;34.53;;;8.00;66.30;;;;;;5085950;28;20257;-88
2023/12/16 03:01:58;;;;;;;67.87;33.03;;;8.00;66.20;;;;;;5059316;28;20629;-87
2023/12/16 03:04:23;;;;;;;75.43;35.27;;;8.00;66.20;;;;;;5065555;28;20182;-88
2023/12/16 03:06:50;;;;;;;71.80;36.10;;;8.00;66.20;;;;;;5078081;28;20205;-87
2023/12/16 03:09:15;;;;;;;60.07;31.83;;;8.00;66.20;;;;;;5087249;28;20626;-88
2023/12/16 03:11:41;;;;;;;61.27;30.97;;;8.10;66.40;;;;;;5070596;28;20224;-88
2023/12/16 03:14:07;;;;;;;70.10;34.00;;;8.10;66.50;;;;;;5067487;28;20189;-86
2023/12/16 03:16:33;;;;;;;68.60;32.77;;;8.10;66.50;;;;;;5058239;28;20182;-87
2023/12/16 03:18:59;;;;;;;65.53;33.23;;;8.00;66.20;;;;;;5080041;28;20191;-87
2023/12/16 03:21:24;;;;;;;58.77;32.60;;;8.10;66.60;;;;;;5062148;28;20548;-87
2023/12/16 03:23:50;;;;;;;67.33;31.77;;;8.10;66.70;;;;;;5056454;28;20761;-87
2023/12/16 03:26:15;;;;;;;68.83;30.67;;;8.20;66.80;;;;;;5088186;28;20183;-87
2023/12/16 03:28:41;;;;;;;65.83;32.23;;;8.20;66.90;;;;;;5073631;28;20280;-87
2023/12/16 03:31:06;;;;;;;61.27;31.47;;;8.10;66.70;;;;;;5081963;28;20201;-88
2023/12/16 03:33:32;;;;;;;51.77;28.17;;;8.10;66.60;;;;;;5085288;28;20198;-88
2023/12/16 03:35:58;;;;;;;59.87;29.97;;;8.10;66.70;;;;;;5088837;28;20230;-88
2023/12/16 03:38:23;;;;;;;57.83;30.10;;;8.10;66.90;;;;;;5073778;28;20231;-87
2023/12/16 03:40:49;;;;;;;56.83;30.87;;;8.10;67.20;;;;;;5058996;28;20264;-88
2023/12/16 03:43:17;;;;;;;70.53;33.10;;;8.20;67.20;;;;;;5066048;28;20216;-87
2023/12/16 03:45:43;;;;;;;60.17;31.03;;;8.10;67.10;;;;;;5061447;28;20185;-87
2023/12/16 03:48:09;;;;;;;59.80;30.40;;;8.10;67.10;;;;;;5056223;28;20184;-88
2023/12/16 03:50:35;;;;;;;53.07;30.73;;;8.10;67.00;;;;;;5070847;28;20256;-88
2023/12/16 03:53:00;;;;;;;60.63;30.93;;;8.10;67.30;;;;;;5059769;28;20265;-87
2023/12/16 03:55:26;;;;;;;66.23;32.23;;;8.20;67.40;;;;;;5061103;28;20276;-87
2023/12/16 03:57:51;;;;;;;57.30;30.60;;;8.30;67.50;;;;;;5064208;28;20656;-87
2023/12/16 04:00:18;;;;;;;59.10;30.40;;;8.30;67.30;;;;;;5084967;28;20193;-87
2023/12/16 04:02:44;;;;;;;58.53;29.20;;;8.20;67.20;;;;;;5071350;28;20186;-87
2023/12/16 04:05:09;;;;;;;58.17;29.90;;;8.20;67.30;;;;;;5057527;28;20700;-87
2023/12/16 04:07:35;;;;;;;61.07;30.17;;;8.30;67.50;;;;;;5068900;28;20217;-87
2023/12/16 04:10:02;;;;;;;67.67;31.87;;;8.20;67.50;;;;;;5072402;28;20712;-88
2023/12/16 04:12:27;;;;;;;59.40;29.80;;;8.30;68.30;;;;;;5067676;28;20585;-87
2023/12/16 04:14:53;;;;;;;66.37;32.10;;;8.10;67.40;;;;;;5071546;28;20196;-87
2023/12/16 04:17:19;;;;;;;59.93;28.27;;;8.20;67.90;;;;;;5069547;28;20209;-87
2023/12/16 04:19:52;;;;;;;55.97;27.90;;;8.20;67.90;;;;;;5085097;28;20181;-87
2023/12/16 04:22:18;;;;;;;56.10;29.10;;;8.20;67.90;;;;;;5062877;28;20555;-87
2023/12/16 04:24:44;;;;;;;55.13;28.57;;;8.30;67.90;;;;;;5058892;28;20190;-86
2023/12/16 04:27:10;;;;;;;63.47;31.10;;;8.40;68.10;;;;;;5070543;28;20185;-87
2023/12/16 04:29:35;;;;;;;61.43;30.10;;;8.30;68.10;;;;;;5088599;28;20667;-87
2023/12/16 04:32:01;;;;;;;65.70;29.97;;;8.20;67.90;;;;;;5054231;28;20201;-87
2023/12/16 04:34:27;;;;;;;60.47;30.80;;;8.20;68.10;;;;;;5060312;28;20186;-87
2023/12/16 04:36:52;;;;;;;58.83;28.73;;;8.30;68.10;;;;;;5062833;28;20188;-87
2023/12/16 04:39:18;;;;;;;57.70;28.83;;;8.40;68.30;;;;;;5085237;28;20274;-87
2023/12/16 04:41:44;;;;;;;60.70;29.77;;;8.20;68.30;;;;;;5068740;28;20187;-86
2023/12/16 04:44:09;;;;;;;61.43;29.80;;;8.20;68.40;;;;;;5072928;28;20170;-87
2023/12/16 04:46:35;;;;;;;59.63;29.50;;;8.40;68.70;;;;;;5064429;28;20240;-87
2023/12/16 04:49:01;;;;;;;64.03;30.33;;;8.30;68.70;;;;;;5080903;28;20229;-86
2023/12/16 04:51:27;;;;;;;54.60;28.83;;;8.20;68.70;;;;;;5054395;28;20201;-86
2023/12/16 04:54:07;;;;;;;63.67;30.47;;;8.20;68.80;;;;;;5067685;28;20268;-86
2023/12/16 04:56:34;;;;;;;64.70;29.50;;;8.20;68.80;;;;;;5067703;28;20188;-86
2023/12/16 04:58:59;;;;;;;58.37;28.70;;;8.30;68.90;;;;;;5086384;28;20224;-87
2023/12/16 05:01:25;;;;;;;62.43;31.30;;;8.30;69.00;;;;;;5080253;28;20189;-87
2023/12/16 05:03:51;;;;;;;61.33;30.97;;;8.40;69.10;;;;;;5079694;28;20627;-87
2023/12/16 05:06:17;;;;;;;53.47;28.77;;;8.30;68.70;;;;;;5057731;28;20231;-87
2023/12/16 05:08:43;;;;;;;60.50;29.90;;;8.30;68.90;;;;;;5087577;28;20176;-87
2023/12/16 05:11:08;;;;;;;58.53;29.00;;;8.40;69.00;;;;;;5073291;28;20223;-87
2023/12/16 05:13:34;;;;;;;58.87;28.80;;;8.30;69.00;;;;;;5060272;28;20196;-87
2023/12/16 05:15:59;;;;;;;57.83;28.47;;;8.30;69.00;;;;;;5054429;28;20194;-87
2023/12/16 05:18:25;;;;;;;54.03;26.10;;;8.40;69.00;;;;;;5057143;28;20205;-86
2023/12/16 05:20:51;;;;;;;47.87;26.93;;;8.50;69.30;;;;;;5072744;28;20227;-87
2023/12/16 05:23:17;;;;;;;58.73;27.07;;;8.40;69.00;;;;;;5074752;28;20173;-87
2023/12/16 05:25:42;;;;;;;55.70;28.20;;;8.30;69.00;;;;;;5055244;28;20660;-87
2023/12/16 05:28:08;;;;;;;55.37;27.47;;;8.30;69.20;;;;;;5063382;28;20725;-87
2023/12/16 05:30:33;;;;;;;59.27;28.63;;;8.30;69.20;;;;;;5084481;28;20568;-87
2023/12/16 05:32:59;;;;;;;53.13;27.63;;;8.30;69.30;;;;;;5054072;28;20194;-86
2023/12/16 05:35:25;;;;;;;51.93;26.43;;;8.30;69.50;;;;;;5083554;28;20180;-87
2023/12/16 05:37:50;;;;;;;56.17;28.10;;;8.40;69.50;;;;;;5084828;28;20188;-87
2023/12/16 05:40:16;;;;;;;50.53;27.70;;;8.40;69.40;;;;;;5080537;28;20658;-87
2023/12/16 05:42:42;;;;;;;55.90;28.63;;;8.40;69.40;;;;;;5060677;28;20181;-87
2023/12/16 05:45:08;;;;;;;52.17;27.23;;;8.40;69.60;;;;;;5068359;28;20568;-87
2023/12/16 05:47:34;;;;;;;59.60;27.63;;;8.40;69.50;;;;;;5055732;28;20176;-86
2023/12/16 05:50:00;;;;;;;56.27;29.57;;;8.40;69.60;;;;;;5058463;28;20254;-86
2023/12/16 05:52:26;;;;;;;54.93;28.10;;;8.40;69.70;;;;;;5063949;28;20213;-87
2023/12/16 05:54:52;;;;;;;53.30;26.77;;;8.40;69.80;;;;;;5067569;28;20251;-87
2023/12/16 05:57:17;;;;;;;52.77;26.73;;;8.40;69.80;;;;;;5070264;28;20725;-87
2023/12/16 05:59:43;;;;;;;53.30;26.80;;;8.50;70.00;;;;;;5071551;28;20721;-86
2023/12/16 06:02:08;;;;;;;55.07;26.10;;;8.40;70.00;;;;;;5064970;28;20208;-87
2023/12/16 06:04:34;;;;;;;55.87;27.13;;;8.40;69.90;;;;;;5083411;28;20652;-87
2023/12/16 06:07:00;;;;;;;52.90;27.00;;;8.50;70.20;;;;;;5078686;28;20182;-88
2023/12/16 06:09:25;;;;;;;43.77;26.17;;;8.40;70.30;;;;;;5056206;28;20621;-87
2023/12/16 06:11:51;;;;;;;47.10;26.53;;;8.40;70.00;;;;;;5086848;28;20335;-87
2023/12/16 06:14:17;;;;;;;51.53;26.13;;;8.50;70.10;;;;;;5069579;28;20231;-86
2023/12/16 06:16:42;;;;;;;55.73;27.70;;;8.50;69.80;;;;;;5062208;28;20180;-87
2023/12/16 06:19:08;;;;;;;55.03;28.70;;;8.50;69.80;;;;;;5080662;28;20271;-87
2023/12/16 06:21:33;;;;;;;51.90;27.17;;;8.60;69.80;;;;;;5057272;28;20185;-87
2023/12/16 06:24:00;;;;;;;52.77;26.90;;;8.60;70.00;;;;;;5070259;28;20189;-87
2023/12/16 06:26:26;;;;;;;46.07;25.37;;;8.60;70.10;;;;;;5088150;28;20226;-87
2023/12/16 06:28:52;;;;;;;54.33;27.00;;;8.70;70.10;;;;;;5083788;28;20177;-87
2023/12/16 06:31:18;;;;;;;55.80;28.27;;;8.60;69.80;;;;;;5079341;28;20621;-87
2023/12/16 06:33:45;;;;;;;51.30;27.40;;;8.60;69.70;;;;;;5055667;28;20192;-87
2023/12/16 06:36:11;;;;;;;48.43;25.90;;;8.60;69.90;;;;;;5071621;28;20788;-87
2023/12/16 06:38:37;;;;;;;44.67;25.83;;;8.60;70.00;;;;;;5069395;28;20223;-86
2023/12/16 06:41:03;;;;;;;46.93;26.37;;;8.60;70.00;;;;;;5064542;28;20192;-87
2023/12/16 06:43:29;;;;;;;48.27;25.87;;;8.60;70.00;;;;;;5064963;28;20205;-87
2023/12/16 06:45:54;;;;;;;55.97;27.00;;;8.70;70.00;;;;;;5074527;28;20554;-87
2023/12/16 06:48:21;;;;;;;44.67;25.23;;;8.60;70.00;;;;;;5056653;28;20982;-87
2023/12/16 06:50:46;;;;;;;49.70;26.63;;;8.50;70.00;;;;;;5067116;28;20191;-87
2023/12/16 06:53:12;;;;;;;48.17;27.17;;;8.60;70.30;;;;;;5071735;28;20197;-87
2023/12/16 06:55:38;;;;;;;52.07;27.23;;;8.60;70.40;;;;;;5066982;28;20192;-87
2023/12/16 06:58:04;;;;;;;56.13;28.07;;;8.60;70.40;;;;;;5087541;28;20231;-88
2023/12/16 07:00:30;;;;;;;45.50;25.63;;;8.60;70.30;;;;;;5088843;28;20334;-87
2023/12/16 07:02:55;;;;;;;53.80;27.50;;;8.70;70.40;;;;;;5090671;28;20256;-88
2023/12/16 07:05:21;;;;;;;53.90;26.07;;;8.70;70.40;;;;;;5063612;28;20272;-87
2023/12/16 07:07:47;;;;;;;46.23;26.03;;;8.70;70.20;;;;;;5073806;28;20217;-87
2023/12/16 07:10:12;;;;;;;45.77;26.17;;;8.60;70.10;;;;;;5087875;28;20196;-87
2023/12/16 07:12:38;;;;;;;43.10;24.80;;;8.80;70.60;;;;;;5072968;28;20294;-87
2023/12/16 07:15:04;;;;;;;52.37;26.20;;;8.70;70.40;;;;;;5053521;28;20189;-87
2023/12/16 07:17:30;;;;;;;47.60;26.27;;;8.70;70.30;;;;;;5063157;28;20228;-87
2023/12/16 07:19:56;;;;;;;45.30;25.57;;;8.90;70.70;;;;;;5061821;28;20193;-87
2023/12/16 07:22:21;;;;;;;43.03;25.33;;;8.70;70.30;;;;;;5076100;28;20200;-87
2023/12/16 07:24:47;;;;;;;56.87;26.50;;;8.70;70.20;;;;;;5059640;28;20177;-87
2023/12/16 07:27:13;;;;;;;47.20;26.07;;;8.70;70.60;;;;;;5088056;28;20182;-87
2023/12/16 07:29:38;;;;;;;43.40;24.80;;;8.70;70.60;;;;;;5080207;28;20177;-87
2023/12/16 07:32:04;;;;;;;50.80;27.60;;;8.70;70.70;;;;;;5081720;28;20208;-88
2023/12/16 07:34:30;;;;;;;46.50;25.90;;;8.60;70.80;;;;;;5069472;28;20185;-87
2023/12/16 07:36:56;;;;;;;45.53;25.43;;;8.60;70.90;;;;;;5083361;28;20272;-87
2023/12/16 07:39:22;;;;;;;53.60;27.23;;;8.70;70.90;;;;;;5071108;28;20694;-87
2023/12/16 07:41:48;;;;;;;44.50;24.70;;;8.80;71.00;;;;;;5074597;28;20700;-87
2023/12/16 07:44:13;;;;;;;46.27;26.13;;;8.70;70.80;;;;;;5061024;28;20195;-87
2023/12/16 07:46:42;;;;;;;50.03;26.07;;;8.90;71.00;;;;;;5066481;28;20185;-87
2023/12/16 07:49:08;;;;;;;42.27;25.27;;;8.70;70.70;;;;;;5082172;28;20244;-87
2023/12/16 07:51:36;;;;;;;57.40;27.57;;;8.80;70.70;;;;;;5085977;28;20201;-87
2023/12/16 07:54:02;;;;;;;47.27;26.57;;;8.90;70.70;;;;;;5052562;28;20530;-87
2023/12/16 07:56:28;;;;;;;39.17;23.83;;;8.80;70.40;;;;;;5079938;28;20177;-87
2023/12/16 07:58:54;;;;;;;46.00;25.17;;;8.90;70.70;;;;;;5068560;28;20221;-87
2023/12/16 08:01:20;;;;;;;50.07;26.63;;;8.90;70.50;;;;;;5067910;28;20193;-88
2023/12/16 08:03:47;;;;;;;48.10;26.90;;;8.90;70.50;;;;;;5087994;28;20185;-87
2023/12/16 08:06:14;;;;;;;49.67;26.00;;;8.90;70.40;;;;;;5064948;28;20177;-87
2023/12/16 08:08:41;;;;;;;47.90;26.27;;;8.90;70.30;;;;;;5082919;28;20176;-87
2023/12/16 08:11:08;;;;;;;42.53;25.43;;;8.90;70.20;;;;;;5067559;28;20570;-86
2023/12/16 08:13:34;;;;;;;49.07;26.17;;;9.00;70.30;;;;;;5069026;28;20188;-88
2023/12/16 08:16:01;;;;;;;48.70;26.53;;;9.00;70.10;;;;;;5067316;28;20189;-86
2023/12/16 08:18:27;;;;;;;45.63;24.83;;;9.10;70.00;;;;;;5069410;28;20173;-87
2023/12/16 08:20:54;;;;;;;50.77;25.57;;;9.10;70.20;;;;;;5070289;28;20184;-86
2023/12/16 08:23:19;;;;;;;46.83;25.07;;;9.10;70.10;;;;;;5070422;28;20315;-86
2023/12/16 08:25:45;;;;;;;45.80;26.67;;;9.10;69.80;;;;;;5070002;28;20284;-86
2023/12/16 08:28:11;;;;;;;47.17;26.93;;;9.10;69.80;;;;;;5064364;28;20272;-86
2023/12/16 08:30:37;;;;;;;45.07;24.63;;;9.10;70.30;;;;;;5069851;28;20544;-86
2023/12/16 08:33:02;;;;;;;46.27;25.00;;;9.10;69.20;;;;;;5069877;28;20180;-87
2023/12/16 08:35:28;;;;;;;43.57;25.67;;;9.10;69.30;;;;;;5066173;28;20196;-88
2023/12/16 08:37:57;;;;;;;40.60;24.83;;;9.10;69.40;;;;;;5070410;28;20641;-87
2023/12/16 08:40:24;;;;;;;47.33;26.30;;;9.10;69.60;;;;;;5065945;28;20181;-87
2023/12/16 09:04:57;;;;;;;47.77;25.70;;;7.60;70.40;;;;;;5113189;27;1287821;-86
2023/12/16 09:07:23;;;;;;;50.30;27.60;;;8.70;72.40;;;;;;5126546;27;20265;-86
2023/12/16 09:09:48;;;;;;;44.63;23.33;;;8.90;72.00;;;;;;5124283;27;20274;-88
2023/12/16 09:12:14;;;;;;;41.40;23.93;;;9.00;71.30;;;;;;5120118;28;20179;-87
2023/12/16 09:14:41;;;;;;;46.33;23.87;;;9.10;70.80;;;;;;5118106;27;20193;-86
2023/12/16 09:17:08;;;;;;;39.30;21.83;;;9.10;70.30;;;;;;5121817;27;20321;-86
2023/12/16 09:19:33;;;;;;;39.80;21.97;;;9.20;70.50;;;;;;5138352;27;20182;-87
2023/12/16 09:21:59;;;;;;;47.90;21.90;;;9.30;70.20;;;;;;5115242;27;20550;-86
2023/12/16 09:24:24;;;;;;;43.03;20.03;;;9.20;69.60;;;;;;5136807;27;20181;-86
2023/12/16 09:26:50;;;;;;;38.70;20.70;;;9.30;69.50;;;;;;5121108;27;20235;-86
2023/12/16 09:29:16;;;;;;;36.80;20.53;;;9.30;69.30;;;;;;5118606;27;20231;-86
2023/12/16 09:31:42;;;;;;;40.33;20.07;;;9.40;69.30;;;;;;5139807;27;20636;-87
2023/12/16 09:34:07;;;;;;;36.13;19.60;;;9.40;69.10;;;;;;5116116;27;20202;-86
2023/12/16 09:36:33;;;;;;;42.30;18.90;;;9.50;69.10;;;;;;5130772;27;20189;-86
2023/12/16 09:38:59;;;;;;;32.50;17.20;;;9.50;68.70;;;;;;5121942;27;20331;-87
2023/12/16 09:41:30;;;;;;;36.27;17.33;;;9.50;68.40;;;;;;5118223;27;20189;-88
2023/12/16 09:43:58;;;;;;;32.50;16.70;;;9.50;68.50;;;;;;5113323;27;20209;-85
2023/12/16 09:46:27;;;;;;;34.00;17.60;;;9.50;68.20;;;;;;5119988;27;20244;-87
2023/12/16 09:48:53;;;;;;;33.37;16.23;;;9.60;68.20;;;;;;5125645;27;20183;-87
2023/12/16 09:51:20;;;;;;;25.17;15.23;;;9.70;67.90;;;;;;5120189;27;20699;-86
2023/12/16 09:53:46;;;;;;;31.77;16.23;;;9.60;67.30;;;;;;5124324;27;20251;-86
2023/12/16 09:56:12;;;;;;;30.07;14.93;;;9.50;67.00;;;;;;5119536;27;20278;-87
2023/12/16 09:58:43;;;;;;;32.83;15.53;;;9.50;67.20;;;;;;5120029;27;20193;-86
2023/12/16 10:01:10;;;;;;;28.17;15.67;;;9.50;67.10;;;;;;5118827;27;20656;-87
2023/12/16 10:03:40;;;;;;;30.33;14.73;;;9.50;67.30;;;;;;5140408;27;20594;-87
2023/12/16 10:06:07;;;;;;;27.17;15.27;;;9.60;67.70;;;;;;5104916;28;20237;-86
2023/12/16 10:08:38;;;;;;;27.83;16.53;;;9.50;67.10;;;;;;5106006;27;20274;-86
2023/12/16 10:11:04;;;;;;;28.67;15.70;;;9.60;67.20;;;;;;5124815;27;20560;-86
2023/12/16 10:13:32;;;;;;;28.27;17.00;;;9.60;67.30;;;;;;5101091;27;20256;-85
2023/12/16 10:15:59;;;;;;;33.87;16.97;;;9.60;67.20;;;;;;5106679;27;20673;-87
2023/12/16 10:18:27;;;;;;;26.97;17.07;;;9.60;67.10;;;;;;5109448;27;20194;-87
2023/12/16 10:20:55;;;;;;;35.00;18.20;;;9.60;67.20;;;;;;5105488;27;20182;-87
2023/12/16 10:23:23;;;;;;;34.87;18.97;;;9.60;67.20;;;;;;5107647;27;20196;-86
2023/12/16 10:25:49;;;;;;;41.90;20.40;;;9.60;66.90;;;;;;5125690;27;20314;-87
2023/12/16 10:28:15;;;;;;;35.03;19.87;;;9.60;66.60;;;;;;5113207;27;20266;-86
2023/12/16 10:30:42;;;;;;;34.20;19.33;;;9.70;66.80;;;;;;5108280;28;20264;-85
2023/12/16 10:33:11;;;;;;;33.77;19.70;;;9.70;67.30;;;;;;5108938;27;20209;-86
2023/12/16 10:35:42;;;;;;;36.20;20.47;;;9.70;67.40;;;;;;5108180;27;20275;-87
2023/12/16 10:38:09;;;;;;;47.17;21.90;;;9.70;66.90;;;;;;5113928;27;20175;-87
2023/12/16 10:40:37;;;;;;;38.13;20.77;;;9.70;66.90;;;;;;5109381;27;20176;-87
2023/12/16 10:43:05;;;;;;;37.23;20.80;;;9.70;66.90;;;;;;5101489;27;20195;-86
2023/12/16 10:45:31;;;;;;;40.80;21.47;;;9.70;66.90;;;;;;5104860;27;20186;-87
2023/12/16 10:48:00;;;;;;;35.50;21.10;;;9.70;67.00;;;;;;5103709;27;20191;-87
2023/12/16 10:50:28;;;;;;;41.90;22.17;;;9.70;67.00;;;;;;5104119;27;20214;-87
2023/12/16 10:52:56;;;;;;;39.13;22.30;;;9.70;67.10;;;;;;5119584;27;20573;-87
2023/12/16 10:55:29;;;;;;;37.77;22.83;;;9.80;68.00;;;;;;5099813;27;20191;-87
2023/12/16 10:58:13;;;;;;;43.47;23.23;;;9.80;67.10;;;;;;5120637;27;20255;-87
2023/12/16 11:00:41;;;;;;;38.53;22.23;;;9.80;67.00;;;;;;5107903;27;20292;-87
2023/12/16 11:03:22;;;;;;;38.43;22.87;;;9.80;67.10;;;;;;5107004;27;20272;-87
2023/12/16 11:05:51;;;;;;;37.63;21.80;;;9.80;67.20;;;;;;5102509;27;20182;-87
2023/12/16 11:08:17;;;;;;;40.67;21.33;;;9.90;67.50;;;;;;5106113;27;20188;-87
2023/12/16 11:10:44;;;;;;;34.03;19.73;;;9.90;67.50;;;;;;5105117;27;20203;-87
2023/12/16 11:13:10;;;;;;;40.20;21.80;;;9.90;67.10;;;;;;5097072;27;20189;-86
2023/12/16 11:15:37;;;;;;;36.60;22.87;;;9.90;67.00;;;;;;5101445;28;20200;-87
2023/12/16 11:18:20;;;;;;;36.60;21.63;;;9.80;66.80;;;;;;5104164;27;20244;-86
2023/12/16 11:20:52;;;;;;;34.50;21.87;;;9.90;67.10;;;;;;5104180;28;20185;-86
2023/12/16 11:23:18;;;;;;;35.97;21.77;;;9.80;66.80;;;;;;5098711;28;20245;-87
2023/12/16 11:25:47;;;;;;;33.13;20.17;;;9.80;66.80;;;;;;5113502;27;20603;-85
2023/12/16 11:28:17;;;;;;;35.87;20.53;;;9.90;67.00;;;;;;5103016;27;20175;-86
2023/12/16 11:30:42;;;;;;;35.30;20.30;;;9.80;66.80;;;;;;5108843;27;20535;-86
2023/12/16 11:33:08;;;;;;;35.70;20.10;;;9.90;66.90;;;;;;5110883;27;20286;-87
2023/12/16 11:35:37;;;;;;;31.90;19.43;;;9.90;66.90;;;;;;5115667;27;20183;-86
2023/12/16 11:38:04;;;;;;;30.43;18.47;;;9.90;67.10;;;;;;5111386;27;20179;-87
2023/12/16 11:40:42;;;;;;;30.90;18.17;;;9.90;67.10;;;;;;5112772;27;20208;-87
2023/12/16 11:43:12;;;;;;;30.63;18.50;;;10.00;65.90;;;;;;5101914;27;20175;-87
2023/12/16 11:45:39;;;;;;;35.97;18.83;;;10.00;65.60;;;;;;5114535;27;20198;-87
2023/12/16 11:48:06;;;;;;;31.63;18.17;;;10.00;65.10;;;;;;5131501;27;20182;-89
2023/12/16 11:50:37;;;;;;;30.87;18.63;;;10.00;65.20;;;;;;5114929;27;20187;-87
2023/12/16 11:53:04;;;;;;;32.57;18.83;;;10.00;65.40;;;;;;5099414;27;20214;-87
2023/12/16 11:55:30;;;;;;;28.63;17.63;;;10.00;65.30;;;;;;5105137;27;20171;-87
2023/12/16 11:57:56;;;;;;;29.53;19.07;;;10.00;65.40;;;;;;5107696;28;20196;-87
2023/12/16 12:00:22;;;;;;;27.93;18.73;;;10.00;65.20;;;;;;5104996;28;20238;-87
2023/12/16 12:02:51;;;;;;;30.83;17.43;;;10.00;65.40;;;;;;5108384;27;20535;-86
2023/12/16 12:05:17;;;;;;;30.60;17.00;;;10.10;65.70;;;;;;5107121;27;20183;-86
2023/12/16 12:07:43;;;;;;;24.87;16.73;;;10.10;65.70;;;;;;5102387;27;20172;-86
2023/12/16 12:10:09;;;;;;;26.43;17.43;;;10.10;65.50;;;;;;5132486;27;20171;-87
2023/12/16 12:12:35;;;;;;;27.13;16.80;;;10.10;66.10;;;;;;5107220;27;20207;-86
2023/12/16 12:15:01;;;;;;;25.03;16.83;;;10.20;65.20;;;;;;5106028;27;20244;-89
2023/12/16 12:17:28;;;;;;;29.37;17.03;;;10.10;64.80;;;;;;5104542;27;20194;-86
2023/12/16 12:19:57;;;;;;;26.70;17.10;;;10.10;65.00;;;;;;5100363;27;20195;-87
2023/12/16 12:22:23;;;;;;;27.00;17.50;;;10.10;65.10;;;;;;5104586;28;20586;-87
2023/12/16 12:24:50;;;;;;;25.67;17.00;;;10.10;65.10;;;;;;5106991;27;20270;-86
2023/12/16 12:27:19;;;;;;;32.50;18.50;;;10.10;65.00;;;;;;5109363;28;20190;-86
2023/12/16 12:29:55;;;;;;;26.80;18.07;;;10.10;65.00;;;;;;5109073;27;20172;-87
2023/12/16 12:32:22;;;;;;;32.57;18.93;;;10.10;65.00;;;;;;5123337;27;20197;-87
2023/12/16 12:35:02;;;;;;;25.43;16.57;;;10.00;65.70;;;;;;5116340;27;20180;-87
2023/12/16 12:37:37;;;;;;;31.17;18.00;;;10.10;65.30;;;;;;5104994;27;20175;-86
2023/12/16 12:40:05;;;;;;;25.87;17.20;;;10.10;65.30;;;;;;5102877;27;20186;-86
2023/12/16 12:42:55;;;;;;;26.13;18.20;;;10.10;65.30;;;;;;5104326;28;20207;-87
2023/12/16 12:45:25;;;;;;;29.03;17.73;;;10.20;65.00;;;;;;5101664;28;20709;-86
2023/12/16 12:47:52;;;;;;;27.67;18.13;;;10.10;64.80;;;;;;5102705;28;20183;-86
2023/12/16 12:50:22;;;;;;;29.77;18.57;;;10.10;65.00;;;;;;5108118;28;20183;-87
2023/12/16 12:52:48;;;;;;;32.50;18.17;;;10.10;64.80;;;;;;5118322;28;20297;-87
2023/12/16 12:55:14;;;;;;;26.20;17.63;;;10.10;64.70;;;;;;5103512;28;20640;-87